Time;durP1;ratioP1;P1;durP2;ratioP2;P2;SDS_P1;SDS_P2;PMS_P1;PMS_P2;Temp;Humidity;BMP_temperature;BMP_pressure;BME280_temperature;BME280_humidity;BME280_pressure;Samples;Min_cycle;Max_cycle;Signal;HPM_P1;HPM_P2
2023/05/21 00:02:18;;;;;;;1.40;0.60;;;14.70;97.90;;;;;;5027845;28;20041;-69
2023/05/21 00:04:44;;;;;;;3.38;1.00;;;14.70;98.00;;;;;;5011508;28;20044;-69
2023/05/21 00:07:11;;;;;;;3.08;1.50;;;14.80;98.10;;;;;;5014482;28;20418;-69
2023/05/21 00:09:38;;;;;;;4.28;1.95;;;14.80;98.30;;;;;;5007145;28;20035;-70
2023/05/21 00:12:05;;;;;;;2.97;1.52;;;14.90;98.50;;;;;;5007622;28;20044;-70
2023/05/21 00:14:32;;;;;;;2.55;1.10;;;14.80;98.60;;;;;;5012494;28;20033;-70
2023/05/21 00:16:58;;;;;;;2.30;1.17;;;14.90;98.80;;;;;;5020459;28;21224;-69
2023/05/21 00:19:25;;;;;;;3.05;1.15;;;14.90;98.80;;;;;;5017132;28;20070;-69
2023/05/21 00:21:53;;;;;;;2.60;1.20;;;15.00;98.90;;;;;;5015500;28;20817;-69
2023/05/21 00:24:20;;;;;;;5.32;1.67;;;15.00;99.00;;;;;;4993393;28;20037;-68
2023/05/21 00:26:46;;;;;;;2.13;0.98;;;15.00;99.10;;;;;;4994038;28;20037;-68
2023/05/21 00:29:12;;;;;;;2.42;1.10;;;15.00;99.30;;;;;;5009724;28;20487;-69
2023/05/21 00:31:38;;;;;;;2.67;1.27;;;15.00;99.30;;;;;;5005710;28;20037;-68
2023/05/21 00:34:05;;;;;;;2.67;1.10;;;15.00;99.40;;;;;;5012590;28;20388;-70
2023/05/21 00:36:33;;;;;;;2.45;1.15;;;15.00;99.50;;;;;;5000276;28;20463;-69
2023/05/21 00:39:01;;;;;;;1.80;1.00;;;15.00;99.60;;;;;;5003198;28;20056;-68
2023/05/21 00:41:28;;;;;;;2.38;1.00;;;15.00;99.70;;;;;;5014084;28;20054;-70
2023/05/21 00:43:56;;;;;;;2.72;1.30;;;15.00;99.90;;;;;;5013354;28;20063;-69
2023/05/21 00:46:22;;;;;;;1.83;0.90;;;15.00;99.90;;;;;;5010822;28;20041;-69
2023/05/21 00:48:49;;;;;;;1.70;0.93;;;15.00;99.90;;;;;;5009289;28;20480;-69
2023/05/21 00:51:17;;;;;;;2.35;1.10;;;15.00;99.90;;;;;;5000689;28;20075;-69
2023/05/21 00:53:45;;;;;;;3.25;1.30;;;15.00;99.90;;;;;;5025954;28;20488;-69
2023/05/21 00:56:11;;;;;;;2.45;1.35;;;15.00;99.90;;;;;;5010511;28;20041;-69
2023/05/21 00:58:39;;;;;;;2.03;1.42;;;15.00;99.90;;;;;;5018649;28;20126;-70
2023/05/21 01:01:05;;;;;;;3.58;1.58;;;14.90;99.90;;;;;;5013494;28;20412;-69
2023/05/21 01:03:37;;;;;;;2.33;1.60;;;14.90;99.90;;;;;;5016881;28;21390;-68
2023/05/21 01:06:04;;;;;;;2.35;1.30;;;14.90;99.90;;;;;;5009127;28;20064;-68
2023/05/21 01:08:33;;;;;;;3.05;1.50;;;14.90;99.90;;;;;;5007100;28;20048;-69
2023/05/21 01:11:02;;;;;;;3.55;1.55;;;14.80;99.90;;;;;;5005155;28;20489;-70
2023/05/21 01:13:29;;;;;;;2.38;1.55;;;14.80;99.90;;;;;;5007469;28;20484;-69
2023/05/21 01:15:57;;;;;;;2.22;1.20;;;14.80;99.90;;;;;;5012278;28;20064;-69
2023/05/21 01:18:24;;;;;;;3.20;1.60;;;14.80;99.90;;;;;;5021248;28;20420;-69
2023/05/21 01:20:52;;;;;;;2.10;1.20;;;14.80;99.90;;;;;;5013995;28;20957;-69
2023/05/21 01:23:19;;;;;;;3.75;1.75;;;14.80;99.90;;;;;;4996629;28;20503;-69
2023/05/21 01:25:46;;;;;;;3.67;1.75;;;14.80;99.90;;;;;;5025280;28;20112;-68
2023/05/21 01:28:13;;;;;;;3.85;1.98;;;14.90;99.90;;;;;;5011451;28;20044;-70
2023/05/21 01:30:41;;;;;;;1.83;1.15;;;14.90;99.90;;;;;;4987763;28;21417;-69
2023/05/21 01:33:26;;;;;;;6.72;1.77;;;14.80;99.90;;;;;;5007053;28;20471;-69
2023/05/21 01:36:04;;;;;;;3.15;1.63;;;14.90;99.90;;;;;;5007851;28;20377;-70
2023/05/21 01:38:42;;;;;;;2.95;1.20;;;14.90;99.90;;;;;;5018405;28;20032;-70
2023/05/21 01:41:13;;;;;;;2.92;1.67;;;14.80;99.90;;;;;;5010648;28;20112;-70
2023/05/21 01:43:44;;;;;;;3.05;2.15;;;14.80;99.90;;;;;;5010334;28;20045;-70
2023/05/21 01:46:16;;;;;;;3.00;1.80;;;14.80;99.90;;;;;;5005778;28;20111;-70
2023/05/21 01:48:43;;;;;;;4.38;2.25;;;14.70;99.90;;;;;;5011364;28;20040;-70
2023/05/21 01:51:10;;;;;;;2.80;1.33;;;14.80;99.90;;;;;;5002647;28;20049;-69
2023/05/21 01:53:39;;;;;;;2.33;1.33;;;14.80;99.90;;;;;;5011034;28;20037;-69
2023/05/21 01:56:06;;;;;;;2.40;1.77;;;14.80;99.90;;;;;;5007271;28;20495;-69
2023/05/21 01:58:32;;;;;;;2.53;1.40;;;14.80;99.90;;;;;;5027592;28;20033;-70
2023/05/21 02:00:59;;;;;;;2.40;1.27;;;14.80;99.90;;;;;;5007279;28;20056;-70
2023/05/21 02:03:26;;;;;;;3.58;1.60;;;14.80;99.90;;;;;;5002127;28;20040;-70
2023/05/21 02:05:54;;;;;;;2.67;1.40;;;14.70;99.90;;;;;;5010400;28;20040;-70
2023/05/21 02:08:22;;;;;;;2.30;1.60;;;14.60;99.90;;;;;;4994098;28;20376;-71
2023/05/21 02:10:49;;;;;;;4.43;2.60;;;14.60;99.90;;;;;;4985350;28;20041;-69
2023/05/21 02:13:19;;;;;;;3.78;2.50;;;14.50;99.90;;;;;;5008270;28;20120;-70
2023/05/21 02:15:46;;;;;;;4.10;2.10;;;14.50;99.90;;;;;;5011589;28;20055;-69
2023/05/21 02:18:15;;;;;;;2.70;1.98;;;14.50;99.90;;;;;;5011923;28;20467;-69
2023/05/21 02:20:42;;;;;;;4.22;2.58;;;14.50;99.90;;;;;;4991941;28;21516;-69
2023/05/21 02:23:09;;;;;;;3.38;1.80;;;14.50;99.90;;;;;;5019687;28;20043;-69
2023/05/21 02:25:35;;;;;;;3.08;2.20;;;14.50;99.90;;;;;;5011910;28;20047;-70
2023/05/21 02:28:01;;;;;;;3.50;2.65;;;14.50;99.90;;;;;;5007308;28;20057;-69
2023/05/21 02:30:28;;;;;;;3.92;1.80;;;14.40;99.90;;;;;;5004000;28;20029;-69
2023/05/21 02:32:54;;;;;;;3.78;1.88;;;14.40;99.90;;;;;;5019541;28;20036;-70
2023/05/21 02:35:21;;;;;;;3.17;2.08;;;14.40;99.90;;;;;;4992678;28;20043;-70
2023/05/21 02:37:47;;;;;;;4.05;1.92;;;14.30;99.90;;;;;;4993098;28;20496;-70
2023/05/21 02:40:15;;;;;;;4.57;2.45;;;14.30;99.90;;;;;;5029363;28;20392;-69
2023/05/21 02:42:41;;;;;;;3.33;1.60;;;14.30;99.90;;;;;;5014606;28;20401;-70
2023/05/21 02:45:13;;;;;;;2.35;1.60;;;14.30;99.90;;;;;;5014863;28;20041;-70
2023/05/21 02:47:42;;;;;;;3.50;1.50;;;14.30;99.90;;;;;;5008142;28;20135;-68
2023/05/21 02:50:08;;;;;;;2.78;1.65;;;14.30;99.90;;;;;;5002636;28;21506;-70
2023/05/21 02:52:41;;;;;;;3.88;2.45;;;14.20;99.90;;;;;;5016494;28;20045;-69
2023/05/21 02:55:09;;;;;;;2.90;2.33;;;14.20;99.90;;;;;;5021114;28;20033;-69
2023/05/21 02:57:35;;;;;;;3.25;2.00;;;14.20;99.90;;;;;;5006857;28;20037;-69
2023/05/21 03:00:02;;;;;;;3.35;2.50;;;14.10;99.90;;;;;;5010224;28;20247;-69
2023/05/21 03:02:30;;;;;;;5.85;2.38;;;14.10;99.90;;;;;;4998705;28;20040;-68
2023/05/21 03:04:57;;;;;;;5.88;1.98;;;14.10;99.90;;;;;;4999340;28;20040;-69
2023/05/21 03:07:23;;;;;;;3.88;2.85;;;14.10;99.90;;;;;;4976330;28;20036;-71
2023/05/21 03:09:50;;;;;;;4.75;2.33;;;14.10;99.90;;;;;;5005518;28;20668;-70
2023/05/21 03:12:16;;;;;;;4.10;2.58;;;14.10;99.90;;;;;;5004244;28;20451;-70
2023/05/21 03:14:43;;;;;;;3.03;2.08;;;14.10;99.90;;;;;;5006949;28;21107;-69
2023/05/21 03:17:12;;;;;;;2.97;2.25;;;14.20;99.90;;;;;;5010466;28;20041;-69
2023/05/21 03:19:40;;;;;;;2.92;2.00;;;14.20;99.90;;;;;;5008967;28;20404;-70
2023/05/21 03:22:06;;;;;;;3.65;2.10;;;14.30;99.90;;;;;;5016343;28;20497;-69
2023/05/21 03:24:37;;;;;;;4.05;2.20;;;14.30;99.90;;;;;;5018260;28;20029;-70
2023/05/21 03:27:05;;;;;;;3.45;2.03;;;14.30;99.90;;;;;;4978292;28;20049;-70
2023/05/21 03:29:32;;;;;;;3.45;2.55;;;14.30;99.90;;;;;;5004032;28;20025;-69
2023/05/21 03:32:01;;;;;;;4.03;2.10;;;14.30;99.90;;;;;;5016333;28;20037;-70
2023/05/21 03:34:27;;;;;;;3.05;2.00;;;14.30;99.90;;;;;;4989108;28;20045;-69
2023/05/21 03:36:54;;;;;;;4.18;2.58;;;14.30;99.90;;;;;;5008109;28;20190;-69
2023/05/21 03:39:21;;;;;;;3.35;2.45;;;14.30;99.90;;;;;;5007676;28;20427;-71
2023/05/21 03:41:48;;;;;;;3.60;2.97;;;14.40;99.90;;;;;;5012768;28;20412;-69
2023/05/21 03:44:22;;;;;;;2.85;2.08;;;14.40;99.90;;;;;;5000882;28;20059;-69
2023/05/21 03:47:06;;;;;;;3.28;2.28;;;14.40;99.90;;;;;;5011208;28;20040;-69
2023/05/21 03:49:35;;;;;;;5.90;3.67;;;14.40;99.90;;;;;;5004074;28;20522;-70
2023/05/21 03:52:01;;;;;;;6.03;2.80;;;14.40;99.90;;;;;;5018065;28;20076;-70
2023/05/21 03:54:28;;;;;;;3.85;2.63;;;14.40;99.90;;;;;;5012473;28;20052;-69
2023/05/21 03:56:59;;;;;;;3.30;3.00;;;14.30;99.90;;;;;;5011090;28;20025;-70
2023/05/21 03:59:27;;;;;;;3.63;2.20;;;14.40;99.90;;;;;;5008802;28;20029;-71
2023/05/21 04:01:53;;;;;;;3.22;2.30;;;14.40;99.90;;;;;;5019404;28;20033;-70
2023/05/21 04:04:20;;;;;;;4.25;3.00;;;14.40;99.90;;;;;;5020934;28;20037;-70
2023/05/21 04:06:48;;;;;;;4.70;2.95;;;14.40;99.90;;;;;;5016419;28;20024;-71
2023/05/21 04:09:15;;;;;;;3.78;2.55;;;14.30;99.90;;;;;;4990229;28;20025;-69
2023/05/21 04:11:41;;;;;;;4.22;2.70;;;14.30;99.90;;;;;;5007955;28;20040;-69
2023/05/21 04:14:09;;;;;;;5.53;4.20;;;14.30;99.90;;;;;;5012926;28;20041;-69
2023/05/21 04:16:37;;;;;;;4.75;3.75;;;14.30;99.90;;;;;;5011425;28;20579;-69
2023/05/21 04:19:05;;;;;;;4.00;2.70;;;14.40;99.90;;;;;;4993133;28;20029;-69
2023/05/21 04:21:31;;;;;;;4.00;2.70;;;14.40;99.90;;;;;;4990058;28;20037;-68
2023/05/21 04:23:59;;;;;;;2.85;1.95;;;14.40;99.90;;;;;;5021304;28;20147;-69
2023/05/21 04:26:45;;;;;;;4.03;2.67;;;14.40;99.90;;;;;;5021898;28;20457;-68
2023/05/21 04:29:11;;;;;;;3.88;2.50;;;14.50;99.90;;;;;;5007755;28;20108;-68
2023/05/21 04:31:38;;;;;;;6.53;2.45;;;14.50;99.90;;;;;;5006379;28;20036;-70
2023/05/21 04:34:05;;;;;;;6.70;3.22;;;14.50;99.90;;;;;;5021662;28;20059;-68
2023/05/21 04:36:32;;;;;;;4.53;2.55;;;14.60;99.90;;;;;;5009457;28;20392;-69
2023/05/21 04:38:59;;;;;;;3.83;2.63;;;14.60;99.90;;;;;;4990765;28;20033;-68
2023/05/21 04:41:25;;;;;;;5.35;4.28;;;14.60;99.90;;;;;;4989563;28;20044;-69
2023/05/21 04:43:54;;;;;;;4.75;3.13;;;14.60;99.90;;;;;;5019825;28;20044;-68
2023/05/21 04:46:24;;;;;;;4.32;3.35;;;14.60;99.90;;;;;;5003090;28;20042;-69
2023/05/21 04:48:56;;;;;;;5.65;3.15;;;14.70;99.90;;;;;;5031763;28;20056;-68
2023/05/21 04:51:23;;;;;;;3.40;2.55;;;14.70;99.90;;;;;;4986218;28;20717;-68
2023/05/21 04:53:50;;;;;;;3.63;2.55;;;14.70;99.90;;;;;;5010610;28;20044;-68
2023/05/21 04:56:17;;;;;;;4.25;3.15;;;14.60;99.90;;;;;;5010803;28;20040;-68
2023/05/21 04:58:44;;;;;;;3.78;2.47;;;14.60;99.90;;;;;;4993854;28;20477;-69
2023/05/21 05:01:11;;;;;;;2.88;2.30;;;14.60;99.90;;;;;;5000817;28;20060;-68
2023/05/21 05:03:38;;;;;;;6.03;3.25;;;14.60;99.90;;;;;;5019469;28;20464;-69
2023/05/21 05:06:06;;;;;;;5.60;2.83;;;14.60;99.90;;;;;;5020170;28;20025;-68
2023/05/21 05:08:33;;;;;;;3.72;2.72;;;14.60;99.90;;;;;;5032829;28;20567;-69
2023/05/21 05:10:59;;;;;;;5.38;3.58;;;14.60;99.90;;;;;;5002785;28;20436;-68
2023/05/21 05:13:26;;;;;;;4.60;2.83;;;14.60;99.90;;;;;;5009323;28;20772;-68
2023/05/21 05:15:52;;;;;;;4.57;2.92;;;14.60;99.90;;;;;;5007643;28;20036;-69
2023/05/21 05:18:19;;;;;;;8.63;4.03;;;14.60;99.90;;;;;;4978943;28;20036;-69
2023/05/21 05:20:46;;;;;;;5.05;3.63;;;14.70;99.90;;;;;;4984624;28;20043;-68
2023/05/21 05:23:13;;;;;;;4.90;3.50;;;14.70;99.90;;;;;;5013512;28;20047;-69
2023/05/21 05:25:39;;;;;;;7.60;5.28;;;14.70;99.90;;;;;;5019273;28;20085;-69
2023/05/21 05:28:06;;;;;;;4.45;3.63;;;14.80;99.90;;;;;;4990418;28;20447;-70
2023/05/21 05:30:32;;;;;;;4.05;2.85;;;14.80;99.90;;;;;;5003475;28;20613;-69
2023/05/21 05:33:10;;;;;;;4.93;3.70;;;14.80;99.90;;;;;;5008748;28;20431;-70
2023/05/21 05:35:37;;;;;;;6.88;3.35;;;14.90;99.90;;;;;;4992376;28;20530;-70
2023/05/21 05:38:03;;;;;;;5.97;3.92;;;14.90;99.90;;;;;;4993398;28;20040;-69
2023/05/21 05:40:30;;;;;;;5.03;3.33;;;15.00;99.90;;;;;;5006017;28;20064;-69
2023/05/21 05:42:56;;;;;;;6.25;3.35;;;15.00;99.90;;;;;;5011682;28;20048;-69
2023/05/21 05:45:25;;;;;;;6.10;3.95;;;15.00;99.90;;;;;;5019866;28;20037;-70
2023/05/21 05:47:51;;;;;;;3.55;3.00;;;15.00;99.90;;;;;;5018916;28;20041;-70
2023/05/21 05:50:18;;;;;;;4.45;3.42;;;15.10;99.90;;;;;;5004703;28;20029;-69
2023/05/21 05:52:44;;;;;;;3.33;2.55;;;15.10;99.90;;;;;;5004363;28;20044;-69
2023/05/21 05:55:11;;;;;;;5.25;3.97;;;15.10;99.90;;;;;;4991777;28;20047;-68
2023/05/21 05:57:37;;;;;;;4.75;3.22;;;15.20;99.90;;;;;;5006458;28;20047;-69
2023/05/21 06:00:10;;;;;;;4.60;3.13;;;15.20;99.90;;;;;;5004385;28;20043;-69
2023/05/21 06:02:39;;;;;;;5.28;3.60;;;15.30;99.90;;;;;;5007726;28;20401;-70
2023/05/21 06:05:06;;;;;;;5.22;3.83;;;15.30;99.90;;;;;;5019890;28;20037;-69
2023/05/21 06:07:32;;;;;;;4.10;2.90;;;15.40;99.90;;;;;;5019074;28;20036;-69
2023/05/21 06:09:58;;;;;;;4.53;3.15;;;15.40;99.90;;;;;;5006363;28;20039;-68
2023/05/21 06:12:25;;;;;;;3.53;2.80;;;15.50;99.90;;;;;;4987259;28;20041;-70
2023/05/21 06:14:51;;;;;;;5.20;2.97;;;15.50;99.90;;;;;;5009311;28;20329;-69
2023/05/21 06:17:19;;;;;;;5.40;3.60;;;15.60;99.90;;;;;;4991055;28;20373;-70
2023/05/21 06:19:45;;;;;;;3.85;3.28;;;15.70;99.90;;;;;;4987384;28;20041;-69
2023/05/21 06:22:11;;;;;;;3.75;3.15;;;15.80;99.90;;;;;;5003828;28;20033;-69
2023/05/21 06:24:38;;;;;;;7.38;2.92;;;15.80;99.90;;;;;;5019040;28;20068;-70
2023/05/21 06:27:05;;;;;;;4.60;3.53;;;15.90;99.90;;;;;;5002941;28;20032;-71
2023/05/21 06:29:32;;;;;;;3.47;3.17;;;16.00;99.90;;;;;;4995970;28;20041;-69
2023/05/21 06:32:00;;;;;;;3.05;2.42;;;16.10;99.90;;;;;;5004496;28;20041;-70
2023/05/21 06:34:27;;;;;;;5.60;4.38;;;16.30;99.90;;;;;;5008298;28;20037;-68
2023/05/21 06:36:54;;;;;;;7.40;4.72;;;16.40;99.90;;;;;;5008094;28;20032;-71
2023/05/21 06:39:20;;;;;;;4.13;3.58;;;16.50;99.90;;;;;;5004683;28;20036;-71
2023/05/21 06:41:48;;;;;;;7.25;5.65;;;16.60;99.90;;;;;;5004128;28;20502;-68
2023/05/21 06:44:38;;;;;;;7.45;5.68;;;16.80;99.90;;;;;;5008333;28;20033;-70
2023/05/21 06:47:27;;;;;;;7.63;6.72;;;16.80;99.90;;;;;;5018172;28;20037;-70
2023/05/21 06:49:53;;;;;;;7.10;4.90;;;17.00;99.90;;;;;;5015771;28;20029;-70
2023/05/21 06:52:20;;;;;;;6.22;4.78;;;17.20;99.90;;;;;;5008667;28;20730;-68
2023/05/21 06:54:47;;;;;;;9.10;4.90;;;17.40;99.90;;;;;;4987165;28;20048;-69
2023/05/21 06:57:15;;;;;;;7.93;5.53;;;17.60;99.90;;;;;;4990927;28;20158;-69
2023/05/21 06:59:42;;;;;;;3.97;3.28;;;17.80;99.90;;;;;;4990343;28;20116;-68
2023/05/21 07:02:09;;;;;;;6.38;3.88;;;18.00;99.90;;;;;;5017817;28;20041;-69
2023/05/21 07:04:35;;;;;;;4.57;3.75;;;18.20;99.90;;;;;;5008224;28;20025;-68
2023/05/21 07:07:03;;;;;;;5.90;4.78;;;18.40;99.90;;;;;;5015052;28;21249;-69
2023/05/21 07:09:31;;;;;;;6.85;3.80;;;18.60;99.90;;;;;;5030049;28;20699;-71
2023/05/21 07:11:57;;;;;;;6.35;3.65;;;18.70;99.90;;;;;;5012356;28;20052;-69
2023/05/21 07:14:25;;;;;;;5.70;4.35;;;19.00;99.90;;;;;;4990287;28;20033;-69
2023/05/21 07:16:52;;;;;;;4.75;3.50;;;19.30;99.90;;;;;;4989587;28;20492;-70
2023/05/21 07:19:18;;;;;;;5.85;4.00;;;19.40;99.90;;;;;;4986940;28;20527;-71
2023/05/21 07:21:45;;;;;;;5.57;4.70;;;19.50;99.90;;;;;;5003480;28;20049;-70
2023/05/21 07:24:11;;;;;;;7.47;6.40;;;19.60;99.90;;;;;;5023218;28;20047;-71
2023/05/21 07:26:41;;;;;;;8.00;7.20;;;19.60;99.90;;;;;;4991138;28;20033;-70
2023/05/21 07:29:07;;;;;;;9.13;5.10;;;19.50;99.90;;;;;;5016857;28;20044;-69
2023/05/21 07:31:33;;;;;;;6.47;4.43;;;19.50;99.90;;;;;;5016100;28;20033;-71
2023/05/21 07:34:00;;;;;;;5.20;3.92;;;19.50;99.90;;;;;;5016740;28;20037;-69
2023/05/21 07:36:30;;;;;;;6.68;4.07;;;19.50;99.90;;;;;;4993441;28;20037;-70
2023/05/21 07:38:56;;;;;;;6.70;5.07;;;19.40;99.90;;;;;;4995681;28;20083;-70
2023/05/21 07:41:22;;;;;;;6.13;4.00;;;19.50;99.90;;;;;;5004558;28;20041;-69
2023/05/21 07:43:50;;;;;;;7.20;3.78;;;19.60;99.90;;;;;;5011133;28;20044;-70
2023/05/21 07:46:16;;;;;;;5.05;3.38;;;19.70;99.90;;;;;;5012433;28;20033;-70
2023/05/21 07:48:43;;;;;;;4.20;2.85;;;19.80;99.90;;;;;;5015946;28;20043;-69
2023/05/21 07:51:10;;;;;;;4.32;3.30;;;19.80;99.90;;;;;;5029383;28;20045;-70
2023/05/21 07:53:36;;;;;;;4.55;3.67;;;19.90;99.90;;;;;;5021260;28;20518;-69
2023/05/21 07:56:06;;;;;;;4.38;3.47;;;20.00;99.90;;;;;;4998766;28;20447;-71
2023/05/21 07:58:34;;;;;;;7.15;4.60;;;20.10;99.90;;;;;;5010920;28;20521;-71
2023/05/21 08:01:00;;;;;;;6.88;5.13;;;20.10;99.90;;;;;;5003227;28;20048;-70
2023/05/21 08:03:29;;;;;;;4.60;2.88;;;20.30;99.90;;;;;;5012731;28;20048;-70
2023/05/21 08:05:59;;;;;;;;;;;20.40;99.90;;;;;;5012728;28;20033;-71
2023/05/21 08:08:26;;;;;;;4.60;3.65;;;20.60;99.90;;;;;;4995826;28;19912;-71
2023/05/21 08:10:55;;;;;;;6.15;4.05;;;20.70;99.90;;;;;;4997165;28;20036;-70
2023/05/21 08:13:25;;;;;;;7.43;5.45;;;20.80;99.90;;;;;;5021181;28;20519;-70
2023/05/21 08:15:51;;;;;;;6.00;4.00;;;20.90;99.90;;;;;;5030488;28;20044;-70
2023/05/21 08:18:19;;;;;;;10.70;5.60;;;20.90;99.90;;;;;;4994823;28;20617;-70
2023/05/21 08:20:47;;;;;;;8.85;4.63;;;21.10;99.90;;;;;;5003902;28;20063;-69
2023/05/21 08:23:15;;;;;;;7.43;4.80;;;21.10;99.90;;;;;;5010891;28;20044;-70
2023/05/21 08:25:48;;;;;;;5.90;5.03;;;21.30;99.90;;;;;;4996782;28;20777;-70
2023/05/21 08:28:14;;;;;;;3.88;3.10;;;21.30;99.90;;;;;;5013069;28;20048;-70
2023/05/21 08:30:41;;;;;;;7.55;4.45;;;21.40;99.90;;;;;;5010699;28;20048;-69
2023/05/21 08:33:07;;;;;;;6.22;5.38;;;21.70;99.90;;;;;;4987879;28;20041;-71
2023/05/21 08:35:34;;;;;;;5.65;4.60;;;21.80;99.90;;;;;;5021495;28;20031;-70
2023/05/21 08:38:23;;;;;;;6.72;4.93;;;22.00;99.90;;;;;;5011343;28;20048;-70
2023/05/21 08:41:15;;;;;;;8.32;5.68;;;22.20;99.90;;;;;;4990983;28;20037;-70
2023/05/21 08:43:46;;;;;;;5.53;4.45;;;22.20;99.90;;;;;;4996572;28;20044;-69
2023/05/21 08:46:12;;;;;;;4.47;3.50;;;22.20;99.90;;;;;;4994788;28;20044;-71
2023/05/21 08:48:41;;;;;;;6.38;4.95;;;22.30;99.90;;;;;;5011727;28;20601;-72
2023/05/21 08:51:07;;;;;;;5.82;4.00;;;22.40;99.90;;;;;;4991017;28;20056;-69
2023/05/21 08:53:41;;;;;;;8.43;5.32;;;22.50;99.90;;;;;;5020242;28;20040;-69
2023/05/21 08:56:09;;;;;;;7.68;5.32;;;22.60;99.90;;;;;;5003442;28;20041;-70
2023/05/21 08:58:46;;;;;;;5.68;4.60;;;22.70;99.90;;;;;;5010192;28;20033;-70
2023/05/21 09:01:17;;;;;;;7.05;5.38;;;22.80;99.90;;;;;;5004101;28;20080;-70
2023/05/21 09:03:46;;;;;;;7.40;5.88;;;22.90;99.90;;;;;;5008560;28;20048;-70
2023/05/21 09:06:13;;;;;;;7.10;5.43;;;22.90;99.50;;;;;;5010869;28;21425;-70
2023/05/21 09:08:47;;;;;;;6.43;5.57;;;22.90;99.70;;;;;;5011928;28;20041;-71
2023/05/21 09:11:25;;;;;;;9.20;5.30;;;23.10;99.40;;;;;;5010073;28;20036;-70
2023/05/21 09:13:58;;;;;;;7.82;5.30;;;23.00;99.00;;;;;;5005203;28;20075;-71
2023/05/21 09:16:51;;;;;;;5.28;4.32;;;23.10;99.10;;;;;;5017299;28;20037;-71
2023/05/21 09:19:21;;;;;;;5.20;4.70;;;23.10;99.00;;;;;;5007010;28;20601;-71
2023/05/21 09:21:51;;;;;;;9.93;6.43;;;23.30;99.00;;;;;;5006333;28;20029;-70
2023/05/21 09:24:21;;;;;;;6.55;5.80;;;23.40;98.70;;;;;;4996457;28;20043;-69
2023/05/21 09:26:48;;;;;;;5.47;4.18;;;23.40;98.40;;;;;;5008804;28;20405;-70
2023/05/21 09:29:15;;;;;;;5.78;4.65;;;23.40;98.30;;;;;;5008025;28;20412;-70
2023/05/21 09:31:44;;;;;;;6.32;5.65;;;23.50;98.20;;;;;;4975838;28;20040;-71
2023/05/21 09:34:13;;;;;;;6.47;5.28;;;23.70;98.10;;;;;;5022269;28;20464;-71
2023/05/21 09:36:40;;;;;;;8.90;5.47;;;23.80;97.60;;;;;;5019404;28;20033;-70
2023/05/21 09:39:07;;;;;;;4.88;3.50;;;23.90;97.50;;;;;;4992729;28;20041;-69
2023/05/21 09:41:35;;;;;;;6.45;5.40;;;24.10;97.60;;;;;;4988548;28;20609;-70
2023/05/21 09:44:04;;;;;;;8.10;4.70;;;24.30;97.10;;;;;;5010897;28;20052;-70
2023/05/21 09:46:39;;;;;;;7.38;6.53;;;24.50;96.90;;;;;;5022896;28;20029;-70
2023/05/21 09:49:06;;;;;;;6.45;5.10;;;24.60;96.20;;;;;;5021086;28;20036;-70
2023/05/21 09:51:37;;;;;;;7.65;6.50;;;24.60;96.00;;;;;;5005856;28;20045;-71
2023/05/21 09:54:03;;;;;;;7.20;6.47;;;24.70;95.90;;;;;;5020993;28;20032;-71
2023/05/21 09:56:30;;;;;;;7.10;6.30;;;24.70;95.40;;;;;;5020562;28;20841;-72
2023/05/21 09:59:00;;;;;;;9.60;7.80;;;24.80;95.40;;;;;;5011452;28;20028;-70
2023/05/21 10:01:27;;;;;;;7.32;5.65;;;24.90;95.10;;;;;;5004001;28;20037;-71
2023/05/21 10:03:55;;;;;;;5.88;5.28;;;25.00;95.10;;;;;;5008067;28;20041;-71
2023/05/21 10:06:32;;;;;;;7.93;6.05;;;25.10;94.90;;;;;;4991761;28;20393;-70
2023/05/21 10:09:01;;;;;;;6.93;6.05;;;25.30;94.80;;;;;;5008345;28;20033;-70
2023/05/21 10:11:30;;;;;;;8.32;6.55;;;25.50;94.30;;;;;;5004376;28;20491;-70
2023/05/21 10:14:00;;;;;;;8.43;7.05;;;25.30;94.10;;;;;;5020959;28;20040;-70
2023/05/21 10:16:28;;;;;;;9.90;6.22;;;25.40;94.10;;;;;;5021069;28;20487;-71
2023/05/21 10:18:56;;;;;;;9.45;7.95;;;25.40;94.00;;;;;;5015105;28;20041;-70
2023/05/21 10:21:23;;;;;;;9.95;8.95;;;25.60;93.90;;;;;;5002864;28;20420;-70
2023/05/21 10:23:50;;;;;;;7.65;6.88;;;25.50;93.50;;;;;;5008947;28;20037;-70
2023/05/21 10:26:22;;;;;;;7.05;6.35;;;25.60;93.50;;;;;;5006988;28;20445;-70
2023/05/21 10:28:50;;;;;;;8.63;7.80;;;25.70;93.40;;;;;;5007340;28;20111;-71
2023/05/21 10:31:18;;;;;;;10.07;8.90;;;25.70;93.00;;;;;;5000774;28;20033;-70
2023/05/21 10:33:44;;;;;;;9.73;8.73;;;25.80;92.80;;;;;;5015771;28;20040;-71
2023/05/21 10:36:11;;;;;;;12.88;11.32;;;25.70;92.50;;;;;;5016083;28;20049;-71
2023/05/21 10:38:38;;;;;;;11.30;8.52;;;25.80;92.10;;;;;;5019753;28;20032;-70
2023/05/21 10:41:06;;;;;;;9.77;7.88;;;25.80;92.30;;;;;;5002939;28;20037;-70
2023/05/21 10:43:38;;;;;;;10.27;9.27;;;26.10;92.20;;;;;;5008298;28;20041;-70
2023/05/21 10:46:42;;;;;;;8.48;7.63;;;26.20;91.50;;;;;;5008127;28;20041;-70
2023/05/21 10:49:35;;;;;;;7.63;6.10;;;26.20;91.50;;;;;;5004324;28;20399;-70
2023/05/21 10:52:18;;;;;;;8.68;6.32;;;26.20;91.60;;;;;;5004894;28;20064;-71
2023/05/21 10:55:03;;;;;;;8.60;7.65;;;26.60;91.70;;;;;;5013775;28;20476;-71
2023/05/21 10:57:50;;;;;;;11.15;9.07;;;26.90;91.00;;;;;;5019232;28;20033;-70
2023/05/21 11:00:19;;;;;;;11.00;7.03;;;27.10;90.30;;;;;;4991789;28;20037;-70
2023/05/21 11:02:47;;;;;;;10.70;8.50;;;27.00;90.20;;;;;;5004147;28;20047;-70
2023/05/21 11:05:13;;;;;;;6.25;5.65;;;27.30;90.10;;;;;;5014502;28;20936;-71
2023/05/21 11:07:55;;;;;;;7.50;6.68;;;27.50;89.60;;;;;;5012106;28;20120;-71
2023/05/21 11:10:34;;;;;;;9.75;8.23;;;27.90;89.20;;;;;;5008317;28;20036;-70
2023/05/21 11:13:15;;;;;;;8.35;6.38;;;28.10;87.40;;;;;;5014192;28;20035;-71
2023/05/21 11:15:57;;;;;;;7.97;7.18;;;28.40;86.90;;;;;;5034958;28;20043;-73
2023/05/21 11:18:38;;;;;;;7.85;7.05;;;28.80;86.20;;;;;;5020735;28;20044;-72
2023/05/21 11:21:05;;;;;;;11.23;8.57;;;29.20;85.00;;;;;;4992103;28;20492;-71
2023/05/21 11:23:49;;;;;;;8.55;7.57;;;29.50;83.40;;;;;;5025829;28;20037;-72
2023/05/21 11:26:17;;;;;;;11.60;9.55;;;29.60;81.90;;;;;;5011831;28;20036;-72
2023/05/21 11:28:43;;;;;;;11.98;10.45;;;29.70;81.70;;;;;;5027015;28;21404;-72
2023/05/21 11:31:33;;;;;;;13.00;8.90;;;29.90;80.70;;;;;;5004922;28;20487;-72
2023/05/21 11:34:19;;;;;;;7.95;7.15;;;30.10;79.80;;;;;;5015710;28;20040;-71
2023/05/21 11:36:47;;;;;;;9.63;7.05;;;30.30;79.30;;;;;;5021408;28;20036;-70
2023/05/21 11:39:21;;;;;;;7.72;7.00;;;30.50;78.40;;;;;;5005234;28;20056;-71
2023/05/21 11:41:57;;;;;;;8.07;7.28;;;30.70;77.20;;;;;;5010845;28;20039;-71
2023/05/21 11:44:46;;;;;;;7.20;6.15;;;30.90;76.60;;;;;;5014669;28;20542;-69
2023/05/21 11:47:17;;;;;;;7.53;6.80;;;31.30;75.80;;;;;;5012852;28;20040;-70
2023/05/21 11:49:45;;;;;;;6.65;5.97;;;31.60;74.60;;;;;;5008893;28;20036;-70
2023/05/21 11:52:12;;;;;;;8.52;7.40;;;31.70;73.60;;;;;;5008823;28;20056;-71
2023/05/21 11:54:45;;;;;;;7.70;6.00;;;31.90;72.90;;;;;;5013229;28;20127;-69
2023/05/21 11:57:16;;;;;;;7.13;6.10;;;32.10;72.20;;;;;;5024208;28;20488;-70
2023/05/21 11:59:42;;;;;;;6.00;5.40;;;32.40;71.50;;;;;;5016805;28;20041;-70
2023/05/21 12:02:08;;;;;;;9.23;5.47;;;32.50;70.30;;;;;;5014330;28;20037;-68
2023/05/21 12:04:35;;;;;;;7.32;6.50;;;32.20;69.60;;;;;;5010880;28;20037;-70
2023/05/21 12:07:08;;;;;;;6.15;5.53;;;32.10;69.60;;;;;;5012251;28;20033;-71
2023/05/21 12:09:53;;;;;;;6.40;5.80;;;32.30;69.20;;;;;;5007324;28;21199;-70
2023/05/21 12:12:21;;;;;;;8.50;6.28;;;32.70;68.70;;;;;;5023695;28;20036;-71
2023/05/21 12:14:52;;;;;;;6.82;6.13;;;33.00;68.30;;;;;;5012856;28;20036;-68
2023/05/21 12:17:20;;;;;;;7.03;6.43;;;33.30;67.30;;;;;;5016135;28;20080;-70
2023/05/21 12:19:49;;;;;;;7.88;6.60;;;33.70;66.50;;;;;;5001451;28;20048;-69
2023/05/21 12:22:16;;;;;;;7.50;6.57;;;33.80;65.40;;;;;;5016441;28;20033;-68
2023/05/21 12:24:43;;;;;;;8.23;6.07;;;34.00;65.10;;;;;;5015045;28;20040;-68
2023/05/21 12:27:12;;;;;;;7.90;7.05;;;34.10;64.30;;;;;;5010846;28;20045;-69
2023/05/21 12:29:41;;;;;;;7.28;6.57;;;34.40;63.60;;;;;;5005750;28;20028;-68
2023/05/21 12:32:11;;;;;;;6.00;5.00;;;34.40;62.40;;;;;;5008325;28;20033;-69
2023/05/21 12:34:52;;;;;;;10.20;7.72;;;34.50;62.90;;;;;;5010397;28;20032;-69
2023/05/21 12:37:23;;;;;;;8.63;6.78;;;34.80;62.20;;;;;;5010579;28;20283;-72
2023/05/21 12:39:51;;;;;;;8.73;7.93;;;35.00;61.50;;;;;;5011306;28;20044;-71
2023/05/21 12:42:25;;;;;;;9.25;7.93;;;35.00;61.00;;;;;;5015925;28;20037;-72
2023/05/21 12:44:52;;;;;;;7.38;6.15;;;35.10;60.70;;;;;;5034681;28;20044;-71
2023/05/21 12:47:21;;;;;;;7.75;6.75;;;35.20;60.10;;;;;;5010797;28;20044;-69
2023/05/21 12:49:47;;;;;;;6.47;5.75;;;35.20;59.10;;;;;;5005748;28;20052;-71
2023/05/21 12:52:19;;;;;;;5.97;5.40;;;35.20;59.50;;;;;;5005632;28;20119;-71
2023/05/21 12:54:52;;;;;;;6.55;5.85;;;35.30;59.30;;;;;;4993039;28;20396;-70
2023/05/21 12:57:22;;;;;;;8.95;8.05;;;35.50;59.40;;;;;;4991664;28;20037;-70